Aviation Digital Data Service (ADDS)

Output produced by METARs form (2240 UTC 26 March 2017)
found at http://bcaws.aviationweather.gov/adds/metars/
 
METAR text: KRHV 262151Z 07003KT 10SM FEW030 OVC150 18/07 A3011
Conditions at: KRHV (SAN JOSE/REID , CA, US) observed 2151 UTC 26 March 2017
Temperature: 18.0°C (64°F)
Dewpoint: 7.0°C (45°F) [RH = 49%]
Pressure (altimeter): 30.11 inches Hg (1019.7 mb)
Winds: from the ENE (70 degrees) at 3 MPH (3 knots; 1.6 m/s)
Visibility: 10 or more miles (16+ km)
Ceiling: 15000 feet AGL
Clouds: few clouds at 3000 feet AGL
overcast cloud deck at 15000 feet AGL
Weather: no significant weather observed at this time